KWST/WST METAR and TAF weather

Enter ICAO airport designator
Station Type Date Time Source
KWST METAR 2020/06/02 18:53 UTC NOAA

KWST 021853Z AUTO 17006KT 10SM SCT085 OVC110 19/10 A2995 RMK AO2 SLP139 T01890100


Station Type Date Time Source
KWST Decoded METAR 2020/06/02 18:53 UTC NOAA

WESTERLY STATE AIRPORT, RI, United States (KWST) 41-21N 071-48W 21M
Jun 02, 2020 - 02:53 PM EDT / 2020.06.02 1853 UTC
Wind: from the S (170 degrees) at 7 MPH (6 KT):0
Visibility: 10 mile(s):0
Sky conditions: overcast
Temperature: 66.0 F (18.9 C)
Dew Point: 50.0 F (10.0 C)
Relative Humidity: 56%
Pressure (altimeter): 29.95 in. Hg (1014 hPa)
ob: KWST 021853Z AUTO 17006KT 10SM SCT085 OVC110 19/10 A2995 RMK AO2 SLP139 T01890100
cycle: 19

Station Type Date Time Source
KWST TAF UTC NOAA

Error!

Example: see airport list